Cdry Blue — ICOB — position and weather

sailwx.info

Track history (hours):
 
Tides and Currents Weather Stations Pressure Air Temp Water Temp Dewpoint Dewpoint Depression Visibility Wind Speed Wind Dir Waves Ship Positions

Cdry Blue

Last reported at 2015-Jul-06 04:34 UTC. Time now 2015-Jul-06 04:53 UTC.
Position N 37°57' E 015°37'.

Length 108 m; draft 7.2 m.

Type: Cargo ship. MMSI: 247289300.

Date/timePositionNaut miles runAvg speedWind from/ knotsBaromVisibWave heightAir tempDewpointWater temp
2015-Jul-06 04:34N 37°57' E 015°37'1110.1
2015-Jul-06 03:30N 37°51' E 015°48'  
2015-Jun-27 00:12N 37°53' E 015°59'811.7
2015-Jun-26 23:31N 37°53' E 015°49'1111.1
2015-Jun-26 22:34N 37°57' E 015°36'1111.1
2015-Jun-26 21:34N 38°08' E 015°35'1010.0
2015-Jun-26 20:33N 38°18' E 015°39'1111.4
2015-Jun-26 19:33N 38°21' E 015°25'1111.4
2015-Jun-26 18:33N 38°20' E 015°11'1111.1
2015-Jun-26 17:34N 38°20' E 014°56'4510.8
2015-Jun-26 13:25N 38°18' E 013°59'911.0
2015-Jun-26 12:33N 38°18' E 013°47'1111.0
2015-Jun-26 11:33N 38°18' E 013°33'1111.1
2015-Jun-26 10:33N 38°17' E 013°19'1111.1
2015-Jun-26 09:34N 38°16' E 013°05'1110.9
2015-Jun-26 08:34N 38°16' E 012°51'1110.5
2015-Jun-26 07:33N 38°16' E 012°38'  
Track history (hours):
 
Tides and Currents Weather Stations Pressure Air Temp Water Temp Dewpoint Dewpoint Depression Visibility Wind Speed Wind Dir Waves Ship Positions

Cdry Blue

Last reported at 2015-Jul-06 04:34 UTC. Time now 2015-Jul-06 04:53 UTC.
Position N 37°57' E 015°37'.

Length 108 m; draft 7.2 m.

Type: Cargo ship. MMSI: 247289300.

Date/timePositionNaut miles runAvg speedWind from/ knotsBaromVisibWave heightAir tempDewpointWater temp
2015-Jul-06 04:34N 37°57' E 015°37'1110.1
2015-Jul-06 03:30N 37°51' E 015°48'  
2015-Jun-27 00:12N 37°53' E 015°59'811.7
2015-Jun-26 23:31N 37°53' E 015°49'1111.1
2015-Jun-26 22:34N 37°57' E 015°36'1111.1
2015-Jun-26 21:34N 38°08' E 015°35'1010.0
2015-Jun-26 20:33N 38°18' E 015°39'1111.4
2015-Jun-26 19:33N 38°21' E 015°25'1111.4
2015-Jun-26 18:33N 38°20' E 015°11'1111.1
2015-Jun-26 17:34N 38°20' E 014°56'4510.8
2015-Jun-26 13:25N 38°18' E 013°59'911.0
2015-Jun-26 12:33N 38°18' E 013°47'1111.0
2015-Jun-26 11:33N 38°18' E 013°33'1111.1
2015-Jun-26 10:33N 38°17' E 013°19'1111.1
2015-Jun-26 09:34N 38°16' E 013°05'1110.9
2015-Jun-26 08:34N 38°16' E 012°51'1110.5
2015-Jun-26 07:33N 38°16' E 012°38'  

Dump ship's entire track history